ADDS METAR Data INFO
IDs: Format: Raw Decoded Include TAF

Data at: 1155 UTC 25 Jun 2018

KMAF 251053Z 15013KT 10SM CLR 26/19 A2988 RMK AO2 SLP059 T02610189 $
KMAF 250953Z AUTO 18015KT 10SM CLR 27/17 A2986 RMK AO2 SLP049 T02720172
KMAF 250853Z AUTO 18021G28KT 10SM CLR 28/17 A2985 RMK AO2 PK WND 18028/0851 SLP046 T02830167 53004
KMAF 250753Z AUTO 18017G25KT 10SM CLR 29/16 A2984 RMK AO2 PK WND 18031/0704 SLP043 T02890161
KMAF 250653Z AUTO 18020G28KT 10SM CLR 30/14 A2983 RMK AO2 PK WND 18030/0620 SLP041 T03000139
KMAF 250553Z AUTO 18021G27KT 10SM CLR 31/12 A2983 RMK AO2 PK WND 17028/0457 SLP043 T03110122 10411 20311 404220261 50012
KMAF 250453Z AUTO 17021KT 10SM CLR 32/12 A2984 RMK AO2 PK WND 17028/0437 SLP044 T03220122
KMAF 250353Z 17019G25KT 10SM CLR 33/13 A2983 RMK AO2 PK WND 18029/0255 SLP042 T03280133
KMAF 250253Z 17026G33KT 8SM CLR 34/13 A2979 RMK AO2 PK WND 18033/0228 SLP032 T03390133 53022
KMAF 250153Z 18021G26KT 9SM CLR 36/16 A2975 RMK AO2 PK WND 17030/0058 WSHFT 0040 SLP015 T03610161
KMAF 250100Z 17021G30KT 8SM CLR 38/16 A2973 RMK AO2 PK WND 17030/0058 WSHFT 0040 T03830161
KMAF 250053Z 18018G27KT 9SM CLR 38/16 A2972 RMK AO2 PK WND 18027/0049 WSHFT 0032 SLP006 T03830161
KMAF 242353Z 23019G22KT 10SM CLR 41/03 A2971 RMK AO2 PK WND 21026/2255 SLP001 T04110033 10422 20378 56015
KMAF 242253Z 21016G26KT 10SM CLR 42/06 A2972 RMK AO2 PK WND 18026/2249 SLP005 T04170061
KMAF 242153Z 23017KT 10SM CLR 42/07 A2974 RMK AO2 PK WND 22028/2120 SLP010 T04220067
KMAF 242053Z 22021G26KT 10SM CLR 42/06 A2976 RMK AO2 PK WND 23026/2052 SLP016 T04220061 58013
KMAF 241953Z 24016G22KT 10SM CLR 41/09 A2977 RMK AO2 SLP021 T04060094
KMAF 241853Z 23016G24KT 10SM CLR 39/13 A2979 RMK AO2 SLP028 T03940128
KMAF 241753Z 24015G22KT 10SM CLR 38/14 A2980 RMK AO2 SLP031 T03780139 10378 20261 56007
KMAF 241653Z 21020G26KT 9SM CLR 35/17 A2981 RMK AO2 PK WND 21026/1648 SLP033 T03500172
KMAF 241553Z 20018G23KT 8SM CLR 32/20 A2982 RMK AO2 PK WND 19026/1501 SLP038 T03170200
KMAF 241453Z 20017G27KT 7SM CLR 29/21 A2982 RMK AO2 PK WND 20028/1415 SLP042 T02940211 51009
KMAF 241353Z 19018G26KT 8SM CLR 28/21 A2982 RMK AO2 PK WND 19028/1331 SLP041 T02780211 $
KMAF 241253Z 19018G28KT 7SM CLR 26/21 A2981 RMK AO2 PK WND 18028/1250 SLP035 T02610211
KMAF 241153Z 18016G26KT 8SM CLR 26/20 A2980 RMK AO2 PK WND 17027/1122 SLP031 T02610200 10322 20261 55002
KMAF 241053Z 17020KT 9SM CLR 27/19 A2979 RMK AO2 PK WND 17027/1042 SLP029 T02720189
KMAF 240953Z AUTO 16020G26KT 10SM CLR 28/19 A2979 RMK AO2 PK WND 16027/0854 SLP028 T02780189
KMAF 240853Z AUTO 16023G29KT 9SM CLR 29/19 A2980 RMK AO2 PK WND 16031/0806 SLP032 T02890189 51007
KMAF 240753Z AUTO 15017G28KT 9SM CLR 31/18 A2980 RMK AO2 PK WND 15028/0747 SLP030 T03060183
KMAF 240653Z AUTO 15017KT 10SM CLR 31/18 A2979 RMK AO2 PK WND 16028/0626 SLP026 T03110178
KMAF 240553Z AUTO 16019KT 10SM CLR 32/17 A2978 RMK AO2 SLP023 T03220167 10406 20317 404110256 51019
KMAF 240453Z AUTO 16010KT 10SM CLR 32/17 A2977 RMK AO2 SLP021 T03220172
KMAF 240353Z 18013KT 10SM CLR 34/17 A2975 RMK AO2 SLP016 T03440172
KMAF 240253Z 13003KT 10SM CLR 33/12 A2972 RMK AO2 SLP006 T03280122 52004
KMAF 240153Z 02004KT 10SM CLR 36/10 A2971 RMK AO2 SLP004 T03610100 $
KMAF 240053Z 30005KT 10SM CLR 39/08 A2971 RMK AO2 SLP002 T03940083 $